PORT of KRISTINEHAMN

Land: Sweden Land: Sweden (SE)
Latitude / Longitude: 59.312° / 14.0625° Toon op kaart Toon op kaart
Lokale Tijd:  UTC +2
UN/LOCODE: SEKHN

Recente Aankomst- en Vertrektijden


Scheepsnaam
Aankomst (UTC)
Aankomst (LT)
Vertrek (UTC)
Vertrek (LT)
Vessel Type: Jachten & Overige  CLEOPATRA 2014-08-31 10:58:00 2014-08-31 12:58:00
Vessel Type: Cargoschip  PATRIA 2014-08-28 17:24:00 2014-08-28 19:24:00 2014-08-29 14:14:00 2014-08-29 16:14:00
Vessel Type: Jachten & Overige  CLEOPATRA 2014-08-17 09:59:00 2014-08-17 11:59:00 2014-08-28 16:29:00 2014-08-28 18:29:00
Vessel Type: Passagiersboot  CHRISTINE AF BRO 2014-08-28 16:08:00 2014-08-28 18:08:00
Vessel Type: Passagiersboot  CHRISTINE AF BRO 2014-08-28 15:07:00 2014-08-28 17:07:00 2014-08-28 16:00:00 2014-08-28 18:00:00
Vessel Type: Passagiersboot  CHRISTINE AF BRO 2014-08-24 13:32:00 2014-08-24 15:32:00 2014-08-28 15:02:00 2014-08-28 17:02:00
Vessel Type: Cargoschip  ASPEN 2014-08-26 03:45:00 2014-08-26 05:45:00 2014-08-28 09:29:00 2014-08-28 11:29:00
Vessel Type: Tankers  NORDIC SIRA 2014-08-27 00:55:00 2014-08-27 02:55:00 2014-08-28 05:41:00 2014-08-28 07:41:00
Vessel Type: Sleepboot, Loods etc  GINA 2014-08-19 12:19:00 2014-08-19 14:19:00 2014-08-27 10:52:00 2014-08-27 12:52:00
Vessel Type: Cargoschip  SKAGERN 2014-08-21 15:57:00 2014-08-21 17:57:00 2014-08-26 18:08:00 2014-08-26 20:08:00

Verwachte aankomsten


Scheepsnaam
Scheduled Arrival (UTC)
Geplande Aankomst (lokale tijd)
Geschatte Aankomsttijd (UTC)
Geschatte Aankomsttijd (Lokaal)
Geen gegevens gevonden

Wind Forecast


    
Tijd (UTC)
Snelheid
Direction
Temperature
2014-09-02 12:00:00 11 knots 227° 16°C
2014-09-02 15:00:00 12 knots 227° 17°C
2014-09-02 18:00:00 10 knots 231° 17°C
2014-09-02 21:00:00 11 knots 245° 17°C
2014-09-03 00:00:00 9 knots 248° 15°C
2014-09-03 03:00:00 6 knots 238° 14°C
2014-09-03 06:00:00 6 knots 225° 14°C
2014-09-03 09:00:00 6 knots 222° 13°C
2014-09-03 12:00:00 6 knots 223° 14°C
2014-09-03 15:00:00 7 knots 211° 17°C
2014-09-03 18:00:00 9 knots 220° 17°C
2014-09-03 21:00:00 10 knots 239° 17°C
2014-09-04 00:00:00 11 knots 233° 16°C
2014-09-04 03:00:00 12 knots 219° 15°C
2014-09-04 06:00:00 13 knots 222° 15°C
2014-09-04 09:00:00 11 knots 225° 15°C
2014-09-04 12:00:00 9 knots 223° 17°C